createdAt,value
2018-03-04T00:01:51.175Z,1.40
2018-03-04T00:04:18.747Z,1.50
2018-03-04T00:06:46.281Z,1.50
2018-03-04T00:09:13.828Z,1.50
2018-03-04T00:11:42.127Z,1.50
2018-03-04T00:14:09.671Z,1.50
2018-03-04T00:16:38.060Z,1.60
2018-03-04T00:19:06.375Z,1.60
2018-03-04T00:21:33.930Z,1.60
2018-03-04T00:24:01.534Z,1.50
2018-03-04T00:26:29.087Z,1.50
2018-03-04T00:28:56.675Z,1.50
2018-03-04T00:31:24.212Z,1.50
2018-03-04T00:33:51.757Z,1.50
2018-03-04T00:36:19.299Z,1.50
2018-03-04T00:38:47.610Z,1.50
2018-03-04T00:41:15.178Z,1.50
2018-03-04T00:43:42.718Z,1.50
2018-03-04T00:46:10.262Z,1.50
2018-03-04T00:48:38.567Z,1.50
2018-03-04T00:51:06.103Z,1.50
2018-03-04T00:53:34.434Z,1.60
2018-03-04T00:56:02.024Z,1.50
2018-03-04T00:58:29.581Z,1.50
2018-03-04T01:00:57.124Z,1.50
2018-03-04T01:03:24.760Z,1.50
2018-03-04T01:05:53.095Z,1.50
2018-03-04T01:08:20.635Z,1.50
2018-03-04T01:10:48.167Z,1.50
2018-03-04T01:13:15.704Z,1.50
2018-03-04T01:15:43.233Z,1.60
2018-03-04T01:18:10.816Z,1.60
2018-03-04T01:20:38.343Z,1.60
2018-03-04T01:23:06.649Z,1.60
2018-03-04T01:25:34.181Z,1.60
2018-03-04T01:28:02.504Z,1.60
2018-03-04T01:30:30.061Z,1.60
2018-03-04T01:32:57.597Z,1.60
2018-03-04T01:35:25.899Z,1.60
2018-03-04T01:37:53.455Z,1.50
2018-03-04T01:40:21.770Z,1.60
2018-03-04T01:42:49.328Z,1.60
2018-03-04T01:45:16.869Z,1.60
2018-03-04T01:47:44.423Z,1.50
2018-03-04T01:50:12.729Z,1.50
2018-03-04T01:52:40.271Z,1.50
2018-03-04T01:55:08.578Z,1.50
2018-03-04T01:57:36.121Z,1.50
2018-03-04T02:00:04.482Z,1.50
2018-03-04T02:02:32.022Z,1.50
2018-03-04T02:04:59.567Z,1.50
2018-03-04T02:07:27.104Z,1.60
2018-03-04T02:09:55.436Z,1.60
2018-03-04T02:12:23.001Z,1.60
2018-03-04T02:14:50.544Z,1.60
2018-03-04T02:17:18.078Z,1.50
2018-03-04T02:19:46.403Z,1.50
2018-03-04T02:22:13.943Z,1.50
2018-03-04T02:24:41.586Z,1.60
2018-03-04T02:27:09.907Z,1.50
2018-03-04T02:29:37.445Z,1.50
2018-03-04T02:32:05.759Z,1.60
2018-03-04T02:34:33.299Z,1.60
2018-03-04T02:37:01.639Z,1.50
2018-03-04T02:39:29.201Z,1.50
2018-03-04T02:41:56.898Z,1.50
2018-03-04T02:44:25.223Z,1.60
2018-03-04T02:46:52.739Z,1.60
2018-03-04T02:49:20.298Z,1.60
2018-03-04T02:51:47.931Z,1.60
2018-03-04T02:54:15.468Z,1.60
2018-03-04T02:56:43.014Z,1.60
2018-03-04T02:59:11.303Z,1.60
2018-03-04T03:01:39.624Z,1.60
2018-03-04T03:04:07.220Z,1.60
2018-03-04T03:06:34.784Z,1.60
2018-03-04T03:09:02.311Z,1.60
2018-03-04T03:11:29.930Z,1.60
2018-03-04T03:13:57.491Z,1.60
2018-03-04T03:16:25.036Z,1.60
2018-03-04T03:18:52.570Z,1.70
2018-03-04T03:21:20.109Z,1.70
2018-03-04T03:23:48.410Z,1.80
2018-03-04T03:26:15.989Z,1.80
2018-03-04T03:28:43.629Z,1.80
2018-03-04T03:31:11.167Z,1.70
2018-03-04T03:33:38.717Z,1.70
2018-03-04T03:36:06.245Z,1.70
2018-03-04T03:38:33.876Z,1.70
2018-03-04T03:41:01.406Z,1.70
2018-03-04T03:43:28.943Z,1.70
2018-03-04T03:45:56.508Z,1.80
2018-03-04T03:48:24.040Z,1.80
2018-03-04T03:50:52.364Z,1.70
2018-03-04T03:53:19.903Z,1.70
2018-03-04T03:55:48.223Z,1.70
2018-03-04T03:58:15.902Z,1.70
2018-03-04T04:00:43.451Z,1.70
2018-03-04T04:03:11.002Z,1.80
2018-03-04T04:05:38.547Z,1.80
2018-03-04T04:08:06.076Z,1.80
2018-03-04T04:10:33.630Z,1.80
2018-03-04T04:13:01.174Z,1.80
2018-03-04T04:15:28.729Z,1.90
2018-03-04T04:17:56.261Z,1.80
2018-03-04T04:20:24.580Z,1.80
2018-03-04T04:22:52.127Z,1.80
2018-03-04T04:25:19.659Z,1.80
2018-03-04T04:27:47.225Z,1.70
2018-03-04T04:30:14.760Z,1.70
2018-03-04T04:32:42.296Z,1.60
2018-03-04T04:35:09.894Z,1.60
2018-03-04T04:37:37.440Z,1.60
2018-03-04T04:40:04.989Z,1.60
2018-03-04T04:42:32.645Z,1.60
2018-03-04T04:45:00.188Z,1.50
2018-03-04T04:47:27.736Z,1.50
2018-03-04T04:49:55.380Z,1.60
2018-03-04T04:52:22.978Z,1.50
2018-03-04T04:54:50.582Z,1.60
2018-03-04T04:57:18.194Z,1.60
2018-03-04T04:59:45.761Z,1.60
2018-03-04T05:02:13.338Z,1.50
2018-03-04T05:04:40.913Z,1.50
2018-03-04T05:07:09.241Z,1.50
2018-03-04T05:09:36.776Z,1.50
2018-03-04T05:12:05.093Z,1.50
2018-03-04T05:14:32.699Z,1.50
2018-03-04T05:17:00.251Z,1.50
2018-03-04T05:19:27.787Z,1.50
2018-03-04T05:21:55.337Z,1.50
2018-03-04T05:24:22.867Z,1.50
2018-03-04T05:26:50.417Z,1.40
2018-03-04T05:29:17.993Z,1.40
2018-03-04T05:31:45.538Z,1.40
2018-03-04T05:34:13.096Z,1.40
2018-03-04T05:36:40.643Z,1.40
2018-03-04T05:39:08.188Z,1.30
2018-03-04T05:41:35.770Z,1.30
2018-03-04T05:44:03.331Z,1.30
2018-03-04T05:46:30.871Z,1.30
2018-03-04T05:48:59.658Z,1.30
2018-03-04T05:51:27.199Z,1.30
2018-03-04T05:53:54.754Z,1.30
2018-03-04T05:56:22.352Z,1.30
2018-03-04T05:58:49.887Z,1.30
2018-03-04T06:01:17.433Z,1.30
2018-03-04T06:03:44.974Z,1.30
2018-03-04T06:06:12.557Z,1.30
2018-03-04T06:08:40.099Z,1.30
2018-03-04T06:11:07.650Z,1.30
2018-03-04T06:13:35.277Z,1.30
2018-03-04T06:16:03.599Z,1.40
2018-03-04T06:18:31.182Z,1.40
2018-03-04T06:20:58.729Z,1.40
2018-03-04T06:23:26.289Z,1.40
2018-03-04T06:25:53.828Z,1.40
2018-03-04T06:28:21.371Z,1.50
2018-03-04T06:30:48.954Z,1.50
2018-03-04T06:33:16.516Z,1.50
2018-03-04T06:35:44.056Z,1.50
2018-03-04T06:38:11.655Z,1.50
2018-03-04T06:40:39.206Z,1.60
2018-03-04T06:43:06.764Z,1.60
2018-03-04T06:45:34.301Z,1.60
2018-03-04T06:48:02.613Z,1.70
2018-03-04T06:50:30.160Z,1.70
2018-03-04T06:52:57.728Z,1.70
2018-03-04T06:55:25.312Z,1.70
2018-03-04T06:57:52.990Z,1.70
2018-03-04T07:00:20.515Z,1.70
2018-03-04T07:02:48.048Z,1.70
2018-03-04T07:05:15.603Z,1.80
2018-03-04T07:07:43.153Z,1.80
2018-03-04T07:10:11.510Z,1.80
2018-03-04T07:12:39.043Z,1.80
2018-03-04T07:15:07.383Z,1.90
2018-03-04T07:17:34.943Z,1.90
2018-03-04T07:20:02.502Z,1.90
2018-03-04T07:22:30.038Z,1.90
2018-03-04T07:24:58.341Z,2.00
2018-03-04T07:27:25.885Z,1.90
2018-03-04T07:29:54.319Z,2.10
2018-03-04T07:32:21.903Z,2.10
2018-03-04T07:34:49.442Z,2.20
2018-03-04T07:37:16.993Z,2.20
2018-03-04T07:39:44.538Z,2.20
2018-03-04T07:42:12.096Z,2.20
2018-03-04T07:44:40.429Z,2.40
2018-03-04T07:47:07.963Z,2.40
2018-03-04T07:49:35.506Z,2.40
2018-03-04T07:52:03.822Z,2.50
2018-03-04T07:54:31.376Z,2.50
2018-03-04T07:56:58.952Z,2.40
2018-03-04T07:59:26.531Z,2.40
2018-03-04T08:01:54.063Z,2.40
2018-03-04T08:04:21.606Z,2.40
2018-03-04T08:06:49.917Z,2.60
2018-03-04T08:09:17.510Z,2.60
2018-03-04T08:11:45.045Z,2.70
2018-03-04T08:14:12.589Z,2.80
2018-03-04T08:16:40.911Z,2.80
2018-03-04T08:19:08.537Z,2.80
2018-03-04T08:21:36.881Z,2.80
2018-03-04T08:24:04.442Z,2.80
2018-03-04T08:26:43.898Z,2.80
2018-03-04T08:29:11.434Z,2.80
2018-03-04T08:31:38.985Z,2.90
2018-03-04T08:34:06.542Z,3.00
2018-03-04T08:36:34.091Z,3.10
2018-03-04T08:39:02.411Z,3.30
2018-03-04T08:41:29.971Z,3.30
2018-03-04T08:43:57.539Z,3.50
2018-03-04T08:46:25.099Z,3.80
2018-03-04T08:48:52.659Z,4.10
2018-03-04T08:51:20.222Z,4.10
2018-03-04T08:53:47.759Z,4.20
2018-03-04T08:56:16.086Z,4.00
2018-03-04T08:58:43.675Z,4.00
2018-03-04T09:01:11.252Z,3.90
2018-03-04T09:03:38.824Z,3.70
2018-03-04T09:06:06.390Z,3.50
2018-03-04T09:08:33.938Z,3.50
2018-03-04T09:11:01.476Z,3.50
2018-03-04T09:13:29.024Z,3.50
2018-03-04T09:15:56.582Z,3.30
2018-03-04T09:18:24.889Z,3.50
2018-03-04T09:20:52.440Z,3.50
2018-03-04T09:23:20.033Z,3.60
2018-03-04T09:25:47.581Z,3.90
2018-03-04T09:28:16.349Z,4.10
2018-03-04T09:30:44.717Z,4.70
2018-03-04T09:33:13.039Z,5.10
2018-03-04T09:35:40.585Z,5.10
2018-03-04T09:38:08.130Z,5.30
2018-03-04T09:40:36.486Z,5.60
2018-03-04T09:43:05.011Z,5.60
2018-03-04T09:45:33.342Z,5.30
2018-03-04T09:48:00.891Z,5.40
2018-03-04T09:50:28.508Z,5.30
2018-03-04T09:52:56.850Z,5.10
2018-03-04T09:55:24.396Z,5.10
2018-03-04T09:57:51.946Z,5.10
2018-03-04T10:00:20.269Z,4.90
2018-03-04T10:02:47.809Z,4.90
2018-03-04T10:05:15.396Z,5.00
2018-03-04T10:07:42.932Z,5.00
2018-03-04T10:10:10.524Z,5.00
2018-03-04T10:12:38.142Z,4.90
2018-03-04T10:15:06.474Z,4.80
2018-03-04T10:17:34.044Z,4.80
2018-03-04T10:20:01.587Z,5.00
2018-03-04T10:22:29.175Z,5.10
2018-03-04T10:24:56.712Z,5.10
2018-03-04T10:27:24.257Z,5.40
2018-03-04T10:29:52.584Z,5.60
2018-03-04T10:32:20.946Z,5.60
2018-03-04T10:34:48.492Z,5.60
2018-03-04T10:37:16.809Z,5.80
2018-03-04T10:39:44.389Z,5.80
2018-03-04T10:42:11.959Z,5.90
2018-03-04T10:44:39.519Z,5.90
2018-03-04T10:47:07.071Z,5.90
2018-03-04T10:49:34.645Z,5.90
2018-03-04T10:52:02.214Z,6.10
2018-03-04T10:54:29.796Z,6.30
2018-03-04T10:56:57.333Z,6.40
2018-03-04T10:59:24.904Z,6.40
2018-03-04T11:01:52.453Z,6.40
2018-03-04T11:04:20.005Z,6.50
2018-03-04T11:06:47.570Z,6.50
2018-03-04T11:09:15.192Z,6.40
2018-03-04T11:11:43.519Z,6.40
2018-03-04T11:14:11.852Z,6.40
2018-03-04T11:16:40.158Z,6.50
2018-03-04T11:19:07.732Z,6.50
2018-03-04T11:21:36.069Z,6.80
2018-03-04T11:24:03.606Z,6.80
2018-03-04T11:26:31.928Z,6.80
2018-03-04T11:28:59.565Z,6.80
2018-03-04T11:31:27.129Z,6.70
2018-03-04T11:33:54.727Z,6.70
2018-03-04T11:36:22.273Z,6.70
2018-03-04T11:38:49.818Z,6.80
2018-03-04T11:41:17.563Z,6.90
2018-03-04T11:43:45.925Z,7.20
2018-03-04T11:46:13.468Z,7.20
2018-03-04T11:48:41.130Z,7.30
2018-03-04T11:51:08.688Z,7.40
2018-03-04T11:53:36.226Z,7.40
2018-03-04T11:56:03.902Z,7.30
2018-03-04T11:58:31.464Z,7.20
2018-03-04T12:00:59.373Z,7.10
2018-03-04T12:03:26.933Z,7.10
2018-03-04T12:05:54.517Z,6.90
2018-03-04T12:08:22.862Z,6.80
2018-03-04T12:10:51.247Z,6.80
2018-03-04T12:13:18.803Z,6.80
2018-03-04T12:15:47.111Z,6.90
2018-03-04T12:18:14.673Z,6.90
2018-03-04T12:20:43.263Z,7.00
2018-03-04T12:23:10.805Z,7.00
2018-03-04T12:25:39.139Z,6.90
2018-03-04T12:28:06.705Z,6.90
2018-03-04T12:30:34.254Z,7.10
2018-03-04T12:33:02.103Z,7.10
2018-03-04T12:35:29.652Z,7.20
2018-03-04T12:37:57.987Z,7.40
2018-03-04T12:40:25.635Z,7.30
2018-03-04T12:42:53.963Z,7.50
2018-03-04T12:45:21.543Z,7.50
2018-03-04T12:47:49.869Z,7.50
2018-03-04T12:50:17.415Z,7.50
2018-03-04T12:52:44.987Z,7.60
2018-03-04T12:55:12.548Z,7.50
2018-03-04T12:57:40.121Z,7.50
2018-03-04T13:00:07.682Z,7.60
2018-03-04T13:02:35.236Z,7.80
2018-03-04T13:05:02.770Z,7.80
2018-03-04T13:07:30.348Z,7.90
2018-03-04T13:09:57.914Z,7.90
2018-03-04T13:12:26.222Z,7.80
2018-03-04T13:14:53.747Z,7.80
2018-03-04T13:17:21.336Z,7.70
2018-03-04T13:19:49.702Z,7.60
2018-03-04T13:22:17.280Z,7.60
2018-03-04T13:24:45.584Z,7.40
2018-03-04T13:27:13.135Z,7.40
2018-03-04T13:29:41.437Z,7.40
2018-03-04T13:32:08.980Z,7.30
2018-03-04T13:34:36.633Z,7.40
2018-03-04T13:37:04.183Z,7.50
2018-03-04T13:39:31.738Z,7.50
2018-03-04T13:41:59.301Z,7.50
2018-03-04T13:44:26.863Z,7.40
2018-03-04T13:46:54.439Z,7.30
2018-03-04T13:49:21.981Z,7.30
2018-03-04T13:51:49.517Z,7.40
2018-03-04T13:54:17.068Z,7.40
2018-03-04T13:56:45.432Z,7.30
2018-03-04T13:59:12.995Z,7.30
2018-03-04T14:01:40.547Z,7.20
2018-03-04T14:04:08.879Z,7.00
2018-03-04T14:06:37.211Z,7.00
2018-03-04T14:09:04.836Z,7.00
2018-03-04T14:11:32.512Z,7.00
2018-03-04T14:14:00.045Z,6.90
2018-03-04T14:16:28.420Z,6.90
2018-03-04T14:18:55.927Z,6.90
2018-03-04T14:21:23.465Z,6.90
2018-03-04T14:23:51.796Z,7.00
2018-03-04T14:26:20.114Z,7.10
2018-03-04T14:28:47.673Z,7.00
2018-03-04T14:31:15.233Z,7.00
2018-03-04T14:33:42.778Z,7.10
2018-03-04T14:36:11.196Z,7.10
2018-03-04T14:38:38.713Z,7.10
2018-03-04T14:41:06.295Z,7.10
2018-03-04T14:43:33.852Z,7.00
2018-03-04T14:46:01.406Z,7.00
2018-03-04T14:48:28.988Z,6.90
2018-03-04T14:50:56.517Z,6.90
2018-03-04T14:53:24.086Z,6.80
2018-03-04T14:55:51.668Z,6.90
2018-03-04T14:58:19.226Z,6.90
2018-03-04T15:00:46.815Z,6.80
2018-03-04T15:03:14.530Z,6.70
2018-03-04T15:05:42.844Z,6.60
2018-03-04T15:08:10.822Z,6.60
2018-03-04T15:10:38.381Z,6.60
2018-03-04T15:13:05.980Z,6.50
2018-03-04T15:15:33.531Z,6.50
2018-03-04T15:18:01.128Z,6.50
2018-03-04T15:20:28.692Z,6.60
2018-03-04T15:22:56.265Z,6.60
2018-03-04T15:25:23.932Z,6.60
2018-03-04T15:27:51.484Z,6.60
2018-03-04T15:30:19.086Z,6.50
2018-03-04T15:32:47.441Z,6.50
2018-03-04T15:35:15.047Z,6.50
2018-03-04T15:37:42.645Z,6.50
2018-03-04T15:40:10.231Z,6.50
2018-03-04T15:42:37.814Z,6.50
2018-03-04T15:45:05.390Z,6.50
2018-03-04T15:47:33.728Z,6.40
2018-03-04T15:50:01.339Z,6.30
2018-03-04T15:52:29.682Z,6.20
2018-03-04T15:54:57.233Z,6.30
2018-03-04T15:57:24.814Z,6.20
2018-03-04T15:59:52.382Z,6.20
2018-03-04T16:02:19.962Z,6.20
2018-03-04T16:04:47.519Z,6.20
2018-03-04T16:07:15.069Z,6.10
2018-03-04T16:09:42.661Z,6.10
2018-03-04T16:12:10.217Z,6.10
2018-03-04T16:14:37.828Z,6.10
2018-03-04T16:17:06.148Z,6.10
2018-03-04T16:19:33.715Z,6.10
2018-03-04T16:22:01.324Z,6.10
2018-03-04T16:24:28.918Z,6.10
2018-03-04T16:26:56.511Z,6.10
2018-03-04T16:29:24.105Z,6.10
2018-03-04T16:31:51.670Z,6.10
2018-03-04T16:34:19.257Z,6.00
2018-03-04T16:36:47.610Z,6.00
2018-03-04T16:39:15.224Z,6.00
2018-03-04T16:41:43.567Z,5.90
2018-03-04T16:44:11.147Z,5.90
2018-03-04T16:46:38.854Z,5.90
2018-03-04T16:49:06.438Z,5.90
2018-03-04T16:51:34.082Z,5.90
2018-03-04T16:54:02.400Z,5.80
2018-03-04T16:56:30.002Z,5.80
2018-03-04T16:58:57.587Z,5.80
2018-03-04T17:01:25.937Z,5.80
2018-03-04T17:03:53.530Z,5.80
2018-03-04T17:06:21.872Z,5.80
2018-03-04T17:08:49.432Z,5.80
2018-03-04T17:11:16.986Z,5.80
2018-03-04T17:13:45.398Z,5.80
2018-03-04T17:16:13.013Z,5.80
2018-03-04T17:18:41.322Z,5.70
2018-03-04T17:21:08.945Z,5.70
2018-03-04T17:23:36.511Z,5.70
2018-03-04T17:26:04.079Z,5.70
2018-03-04T17:28:31.751Z,5.70
2018-03-04T17:31:00.088Z,5.70
2018-03-04T17:33:27.663Z,5.60
2018-03-04T17:35:55.222Z,5.70
2018-03-04T17:38:22.886Z,5.70
2018-03-04T17:40:50.610Z,5.70
2018-03-04T17:43:19.054Z,5.70
2018-03-04T17:45:46.619Z,5.70
2018-03-04T17:48:15.022Z,5.70
2018-03-04T17:50:42.623Z,5.70
2018-03-04T17:53:10.408Z,5.70
2018-03-04T17:55:38.050Z,5.80
2018-03-04T17:58:06.408Z,5.90
2018-03-04T18:00:34.279Z,5.90
2018-03-04T18:03:01.957Z,6.00
2018-03-04T18:05:29.989Z,6.20
2018-03-04T18:07:57.955Z,6.20
2018-03-04T18:10:25.510Z,6.40
2018-03-04T18:12:53.112Z,6.40
2018-03-04T18:15:20.670Z,6.50
2018-03-04T18:17:48.280Z,6.50
2018-03-04T18:20:16.629Z,6.50
2018-03-04T18:22:44.190Z,6.50
2018-03-04T18:25:11.778Z,6.60
2018-03-04T18:27:39.381Z,6.60
2018-03-04T18:30:07.078Z,6.60
2018-03-04T18:32:34.664Z,6.60
2018-03-04T18:35:02.334Z,6.70
2018-03-04T18:37:29.901Z,6.80
2018-03-04T18:39:57.501Z,6.80
2018-03-04T18:42:25.875Z,6.80
2018-03-04T18:44:54.222Z,6.80
2018-03-04T18:47:21.778Z,6.80
2018-03-04T18:49:49.363Z,6.80
2018-03-04T18:52:16.923Z,6.80
2018-03-04T18:54:44.527Z,6.80
2018-03-04T18:57:12.928Z,6.70
2018-03-04T18:59:40.621Z,6.70
2018-03-04T19:02:08.309Z,6.70
2018-03-04T19:04:35.873Z,6.70
2018-03-04T19:07:03.514Z,6.70
2018-03-04T19:09:31.263Z,6.70
2018-03-04T19:11:59.757Z,6.70
2018-03-04T19:14:27.409Z,6.60
2018-03-04T19:16:55.764Z,6.70
2018-03-04T19:19:23.400Z,6.70
2018-03-04T19:21:50.978Z,6.70
2018-03-04T19:24:18.580Z,6.70
2018-03-04T19:26:46.224Z,6.70
2018-03-04T19:29:13.788Z,6.60
2018-03-04T19:31:41.431Z,6.60
2018-03-04T19:34:09.940Z,6.50
2018-03-04T19:36:37.787Z,6.50
2018-03-04T19:39:05.398Z,6.50
2018-03-04T19:41:33.036Z,6.50
2018-03-04T19:44:00.703Z,6.50
2018-03-04T19:46:28.369Z,6.40
2018-03-04T19:48:55.941Z,6.40
2018-03-04T19:51:23.515Z,6.40
2018-03-04T19:53:51.890Z,6.40
2018-03-04T19:56:19.633Z,6.40
2018-03-04T19:58:47.364Z,6.40
2018-03-04T20:01:15.908Z,6.50
2018-03-04T20:03:43.553Z,6.50
2018-03-04T20:06:11.212Z,6.50
2018-03-04T20:08:38.920Z,6.50
2018-03-04T20:11:06.599Z,6.50
2018-03-04T20:13:34.352Z,6.50
2018-03-04T20:16:01.978Z,6.40
2018-03-04T20:18:30.380Z,6.40
2018-03-04T20:20:58.146Z,6.40
2018-03-04T20:23:25.831Z,6.40
2018-03-04T20:25:54.427Z,6.40
2018-03-04T20:28:21.988Z,6.30
2018-03-04T20:30:49.669Z,6.40
2018-03-04T20:33:17.288Z,6.30
2018-03-04T20:35:45.658Z,6.40
2018-03-04T20:38:13.242Z,6.40
2018-03-04T20:40:41.620Z,6.40
2018-03-04T20:43:09.979Z,6.50
2018-03-04T20:45:38.363Z,6.60
2018-03-04T20:48:05.934Z,6.50
2018-03-04T20:50:33.526Z,6.70
2018-03-04T20:53:02.046Z,6.70
2018-03-04T20:55:29.623Z,6.70
2018-03-04T20:57:57.297Z,6.80
2018-03-04T21:00:24.897Z,6.90
2018-03-04T21:02:52.462Z,6.90
2018-03-04T21:05:20.784Z,6.90
2018-03-04T21:07:48.337Z,6.90
2018-03-04T21:10:16.692Z,6.90
2018-03-04T21:12:44.303Z,6.90
2018-03-04T21:15:12.604Z,6.90
2018-03-04T21:17:40.151Z,6.90
2018-03-04T21:20:07.742Z,7.00
2018-03-04T21:22:35.347Z,6.90
2018-03-04T21:25:03.683Z,7.00
2018-03-04T21:27:31.242Z,7.00
2018-03-04T21:29:58.878Z,7.00
2018-03-04T21:32:26.582Z,7.00
2018-03-04T21:34:54.172Z,7.00
2018-03-04T21:37:21.761Z,7.10
2018-03-04T21:39:50.106Z,7.00
2018-03-04T21:42:17.669Z,7.00
2018-03-04T21:44:45.255Z,7.10
2018-03-04T21:47:12.840Z,7.00
2018-03-04T21:49:41.158Z,7.00
2018-03-04T21:52:08.724Z,6.90
2018-03-04T21:54:36.294Z,7.00
2018-03-04T21:57:03.846Z,7.00
2018-03-04T21:59:31.440Z,7.00
2018-03-04T22:01:58.985Z,7.00
2018-03-04T22:04:26.543Z,7.00
2018-03-04T22:06:54.106Z,7.00
2018-03-04T22:09:22.409Z,6.90
2018-03-04T22:11:49.970Z,6.90
2018-03-04T22:14:17.555Z,6.90
2018-03-04T22:16:45.105Z,6.80
2018-03-04T22:19:12.645Z,6.90
2018-03-04T22:21:40.203Z,6.80
2018-03-04T22:24:08.598Z,6.80
2018-03-04T22:26:36.146Z,6.80
2018-03-04T22:29:04.471Z,6.70
2018-03-04T22:31:32.021Z,6.70
2018-03-04T22:33:59.560Z,6.60
2018-03-04T22:36:28.007Z,6.40
2018-03-04T22:38:56.313Z,6.30
2018-03-04T22:41:23.919Z,6.30
2018-03-04T22:43:51.464Z,6.30
2018-03-04T22:46:19.818Z,6.00
2018-03-04T22:48:47.376Z,6.00
2018-03-04T22:51:14.933Z,5.90
2018-03-04T22:53:42.514Z,5.80
2018-03-04T22:56:10.044Z,5.80
2018-03-04T22:58:37.688Z,5.70
2018-03-04T23:01:06.038Z,5.60
2018-03-04T23:03:33.584Z,5.50
2018-03-04T23:06:01.309Z,5.50
2018-03-04T23:08:29.647Z,5.30
2018-03-04T23:10:57.200Z,5.30
2018-03-04T23:13:24.741Z,5.30
2018-03-04T23:15:52.281Z,5.20
2018-03-04T23:18:20.578Z,5.00
2018-03-04T23:20:48.201Z,5.00
2018-03-04T23:23:15.827Z,5.00
2018-03-04T23:25:43.374Z,4.90
2018-03-04T23:28:10.934Z,4.80
2018-03-04T23:30:39.242Z,4.80
2018-03-04T23:33:06.779Z,4.80
2018-03-04T23:35:35.160Z,4.70
2018-03-04T23:38:03.491Z,4.60
2018-03-04T23:40:31.012Z,4.60
2018-03-04T23:42:59.331Z,4.50
2018-03-04T23:45:26.871Z,4.40
2018-03-04T23:47:54.412Z,4.40
2018-03-04T23:50:21.974Z,4.30
2018-03-04T23:52:49.512Z,4.20
2018-03-04T23:55:17.067Z,4.20
2018-03-04T23:57:45.345Z,4.20
